createdAt,value
2018-04-30T00:00:08.363Z,99.99
2018-04-30T00:01:08.335Z,99.99
2018-04-30T00:02:08.263Z,99.99
2018-04-30T00:03:08.238Z,99.99
2018-04-30T00:04:08.194Z,99.99
2018-04-30T00:05:08.184Z,99.99
2018-04-30T00:06:08.106Z,99.99
2018-04-30T00:07:08.068Z,99.99
2018-04-30T00:08:08.083Z,99.99
2018-04-30T00:09:07.995Z,99.99
2018-04-30T00:10:07.968Z,99.99
2018-04-30T00:11:07.948Z,99.99
2018-04-30T00:12:07.863Z,99.99
2018-04-30T00:13:07.826Z,99.99
2018-04-30T00:14:07.804Z,99.99
2018-04-30T00:15:07.784Z,99.99
2018-04-30T00:16:07.720Z,99.99
2018-04-30T00:17:07.693Z,99.99
2018-04-30T00:18:07.627Z,99.99
2018-04-30T00:19:07.617Z,99.99
2018-04-30T00:20:07.571Z,99.99
2018-04-30T00:21:07.518Z,99.99
2018-04-30T00:22:07.479Z,99.99
2018-04-30T00:23:07.442Z,99.99
2018-04-30T00:24:07.404Z,99.99
2018-04-30T00:25:07.406Z,99.99
2018-04-30T00:26:07.315Z,99.99
2018-04-30T00:27:07.306Z,99.99
2018-04-30T00:28:07.238Z,99.99
2018-04-30T00:29:07.238Z,99.99
2018-04-30T00:30:07.169Z,99.99
2018-04-30T00:31:07.210Z,99.99
2018-04-30T00:32:07.099Z,99.99
2018-04-30T00:33:07.058Z,99.99
2018-04-30T00:34:07.010Z,99.99
2018-04-30T00:35:06.973Z,99.99
2018-04-30T00:36:06.979Z,99.99
2018-04-30T00:37:06.892Z,99.99
2018-04-30T00:38:06.858Z,99.99
2018-04-30T00:39:06.810Z,99.99
2018-04-30T00:40:06.783Z,99.99
2018-04-30T00:41:06.771Z,99.99
2018-04-30T00:42:06.702Z,99.99
2018-04-30T00:43:06.659Z,99.99
2018-04-30T00:44:06.624Z,99.99
2018-04-30T00:45:06.594Z,99.99
2018-04-30T00:46:06.577Z,99.99
2018-04-30T00:47:06.491Z,99.99
2018-04-30T00:48:06.507Z,99.99
2018-04-30T00:49:06.423Z,99.99
2018-04-30T00:50:06.372Z,99.99
2018-04-30T00:51:06.391Z,99.99
2018-04-30T00:52:06.298Z,99.99
2018-04-30T00:53:06.264Z,99.99
2018-04-30T00:54:06.229Z,99.99
2018-04-30T00:55:06.212Z,99.99
2018-04-30T00:56:06.133Z,99.99
2018-04-30T00:57:06.176Z,99.99
2018-04-30T00:58:06.056Z,99.99
2018-04-30T00:59:06.017Z,99.99
2018-04-30T01:00:06.003Z,99.99
2018-04-30T01:01:05.967Z,99.99
2018-04-30T01:02:05.924Z,99.99
2018-04-30T01:03:05.888Z,99.99
2018-04-30T01:04:05.848Z,99.99
2018-04-30T01:05:05.798Z,99.99
2018-04-30T01:06:05.805Z,99.99
2018-04-30T01:07:05.749Z,99.99
2018-04-30T01:08:05.694Z,99.99
2018-04-30T01:09:05.643Z,99.99
2018-04-30T01:10:05.590Z,99.99
2018-04-30T01:11:05.601Z,99.99
2018-04-30T01:12:05.542Z,99.99
2018-04-30T01:13:05.484Z,99.99
2018-04-30T01:14:05.461Z,99.99
2018-04-30T01:15:05.413Z,99.99
2018-04-30T01:16:05.406Z,99.99
2018-04-30T01:17:05.353Z,99.99
2018-04-30T01:18:05.336Z,99.99
2018-04-30T01:19:05.244Z,99.99
2018-04-30T01:20:05.207Z,99.99
2018-04-30T01:21:05.192Z,99.99
2018-04-30T01:22:05.201Z,99.99
2018-04-30T01:23:05.097Z,99.99
2018-04-30T01:24:05.053Z,99.99
2018-04-30T01:25:04.997Z,99.99
2018-04-30T01:26:04.993Z,99.99
2018-04-30T01:27:04.932Z,99.99
2018-04-30T01:28:04.934Z,99.99
2018-04-30T01:29:04.857Z,99.99
2018-04-30T01:30:04.809Z,99.99
2018-04-30T01:31:04.806Z,99.99
2018-04-30T01:32:04.750Z,99.99
2018-04-30T01:33:04.726Z,99.99
2018-04-30T01:34:04.650Z,99.99
2018-04-30T01:35:04.607Z,99.99
2018-04-30T01:36:04.561Z,99.99
2018-04-30T01:37:04.520Z,99.99
2018-04-30T01:38:04.508Z,99.99
2018-04-30T01:39:04.487Z,99.99
2018-04-30T01:40:04.420Z,99.99
2018-04-30T01:41:04.393Z,99.99
2018-04-30T01:42:04.354Z,99.99
2018-04-30T01:43:04.317Z,99.99
2018-04-30T01:44:04.288Z,99.99
2018-04-30T01:45:04.217Z,99.99
2018-04-30T01:46:04.177Z,99.99
2018-04-30T01:47:04.145Z,99.99
2018-04-30T01:48:04.104Z,99.99
2018-04-30T01:49:04.122Z,99.99
2018-04-30T01:50:04.039Z,99.99
2018-04-30T01:51:03.983Z,99.99
2018-04-30T01:52:03.955Z,99.99
2018-04-30T01:53:03.916Z,99.99
2018-04-30T01:54:03.891Z,99.99
2018-04-30T01:55:03.845Z,99.99
2018-04-30T01:56:03.791Z,99.99
2018-04-30T01:57:03.753Z,99.99
2018-04-30T01:58:03.719Z,99.99
2018-04-30T01:59:03.685Z,99.99
2018-04-30T02:00:03.646Z,99.99
2018-04-30T02:01:03.590Z,99.99
2018-04-30T02:02:03.558Z,99.99
2018-04-30T02:03:03.514Z,99.99
2018-04-30T02:04:03.484Z,99.99
2018-04-30T02:05:03.471Z,99.99
2018-04-30T02:06:03.443Z,99.99
2018-04-30T02:07:03.371Z,99.99
2018-04-30T02:08:03.325Z,99.99
2018-04-30T02:09:03.316Z,99.99
2018-04-30T02:10:03.288Z,99.99
2018-04-30T02:11:03.224Z,99.99
2018-04-30T02:12:03.220Z,99.99
2018-04-30T02:13:03.152Z,99.99
2018-04-30T02:14:03.122Z,99.99
2018-04-30T02:15:03.067Z,99.99
2018-04-30T02:16:03.018Z,99.99
2018-04-30T02:17:02.981Z,99.99
2018-04-30T02:18:02.995Z,99.99
2018-04-30T02:19:02.921Z,99.99
2018-04-30T02:20:02.890Z,99.99
2018-04-30T02:21:02.842Z,99.99
2018-04-30T02:22:02.834Z,99.99
2018-04-30T02:23:02.722Z,99.99
2018-04-30T02:24:02.787Z,99.99
2018-04-30T02:25:02.673Z,99.99
2018-04-30T02:26:02.628Z,99.99
2018-04-30T02:27:02.614Z,99.99
2018-04-30T02:28:02.590Z,99.99
2018-04-30T02:29:02.495Z,99.99
2018-04-30T02:30:02.491Z,99.99
2018-04-30T02:31:02.440Z,99.99
2018-04-30T02:32:02.406Z,99.99
2018-04-30T02:33:02.341Z,99.99
2018-04-30T02:34:02.318Z,99.99
2018-04-30T02:35:02.330Z,99.99
2018-04-30T02:36:02.237Z,99.99
2018-04-30T02:37:10.838Z,99.99
2018-04-30T02:38:02.156Z,99.99
2018-04-30T02:39:02.156Z,99.99
2018-04-30T02:40:02.108Z,99.99
2018-04-30T02:41:02.027Z,99.99
2018-04-30T02:42:02.000Z,99.99
2018-04-30T02:43:01.964Z,99.99
2018-04-30T02:44:01.946Z,99.99
2018-04-30T02:45:01.931Z,99.99
2018-04-30T02:46:01.843Z,99.99
2018-04-30T02:47:11.267Z,99.99
2018-04-30T02:48:01.789Z,99.99
2018-04-30T02:49:01.803Z,99.99
2018-04-30T02:50:02.071Z,99.99
2018-04-30T02:51:01.662Z,99.99
2018-04-30T02:52:01.595Z,99.99
2018-04-30T02:53:01.587Z,99.99
2018-04-30T02:54:01.528Z,99.99
2018-04-30T02:55:01.485Z,99.99
2018-04-30T02:56:01.479Z,99.99
2018-04-30T02:57:12.475Z,99.99
2018-04-30T02:58:01.377Z,99.99
2018-04-30T02:59:01.327Z,99.99
2018-04-30T03:00:01.355Z,99.99
2018-04-30T03:01:01.321Z,99.99
2018-04-30T03:02:01.242Z,99.99
2018-04-30T03:03:01.223Z,99.99
2018-04-30T03:04:01.134Z,99.99
2018-04-30T03:05:01.096Z,99.99
2018-04-30T03:06:01.067Z,99.99
2018-04-30T03:07:01.003Z,99.99
2018-04-30T03:08:00.982Z,99.99
2018-04-30T03:09:00.960Z,99.99
2018-04-30T03:10:00.899Z,99.99
2018-04-30T03:11:00.884Z,99.99
2018-04-30T03:12:00.840Z,99.99
2018-04-30T03:13:00.794Z,99.99
2018-04-30T03:14:00.797Z,99.99
2018-04-30T03:15:00.717Z,99.99
2018-04-30T03:16:08.995Z,99.99
2018-04-30T03:17:00.613Z,99.99
2018-04-30T03:18:00.616Z,99.99
2018-04-30T03:19:00.565Z,99.99
2018-04-30T03:20:00.547Z,99.99
2018-04-30T03:21:02.379Z,99.99
2018-04-30T03:22:00.447Z,99.99
2018-04-30T03:23:00.397Z,99.99
2018-04-30T03:24:00.351Z,99.99
2018-04-30T03:25:00.319Z,99.99
2018-04-30T03:26:00.296Z,99.99
2018-04-30T03:27:00.261Z,99.99
2018-04-30T03:28:00.197Z,99.99
2018-04-30T03:29:00.153Z,99.99
2018-04-30T03:30:00.125Z,99.99
2018-04-30T03:31:00.110Z,99.99
2018-04-30T03:32:00.056Z,99.99
2018-04-30T03:33:00.007Z,99.99
2018-04-30T03:33:59.952Z,99.99
2018-04-30T03:34:59.927Z,99.99
2018-04-30T03:36:09.183Z,99.99
2018-04-30T03:36:59.858Z,99.99
2018-04-30T03:37:59.847Z,99.99
2018-04-30T03:38:59.786Z,99.99
2018-04-30T03:40:01.048Z,99.99
2018-04-30T03:40:59.711Z,99.99
2018-04-30T03:41:59.650Z,99.99
2018-04-30T03:42:59.648Z,99.99
2018-04-30T03:43:59.634Z,99.99
2018-04-30T03:44:59.539Z,99.99
2018-04-30T03:45:59.495Z,99.99
2018-04-30T03:46:59.438Z,99.99
2018-04-30T03:47:59.446Z,99.99
2018-04-30T03:49:08.583Z,99.99
2018-04-30T03:49:59.326Z,99.99
2018-04-30T03:50:59.392Z,99.99
2018-04-30T03:51:59.260Z,99.99
2018-04-30T03:52:59.296Z,99.99
2018-04-30T03:53:59.155Z,99.99
2018-04-30T03:55:09.624Z,99.99
2018-04-30T03:55:59.091Z,99.99
2018-04-30T03:56:59.067Z,99.99
2018-04-30T03:57:59.062Z,99.99
2018-04-30T03:59:01.956Z,99.99
2018-04-30T03:59:58.962Z,99.99
2018-04-30T04:00:58.898Z,99.99
2018-04-30T04:01:58.867Z,99.99
2018-04-30T04:02:58.877Z,99.99
2018-04-30T04:03:58.873Z,99.99
2018-04-30T04:04:58.735Z,99.99
2018-04-30T04:05:58.698Z,99.99
2018-04-30T04:06:58.667Z,99.99
2018-04-30T04:07:58.641Z,99.99
2018-04-30T04:08:58.625Z,99.99
2018-04-30T04:09:58.544Z,99.99
2018-04-30T04:10:58.493Z,99.99
2018-04-30T04:11:58.480Z,99.99
2018-04-30T04:12:58.444Z,99.99
2018-04-30T04:14:08.099Z,99.99
2018-04-30T04:15:08.627Z,99.99
2018-04-30T04:15:58.335Z,99.99
2018-04-30T04:16:58.271Z,99.99
2018-04-30T04:17:58.246Z,99.99
2018-04-30T04:18:58.210Z,99.99
2018-04-30T04:19:58.146Z,99.99
2018-04-30T04:20:58.115Z,99.99
2018-04-30T04:21:58.073Z,99.99
2018-04-30T04:22:58.033Z,99.99
2018-04-30T04:23:58.009Z,99.99
2018-04-30T04:24:57.960Z,99.99
2018-04-30T04:25:57.937Z,99.99
2018-04-30T04:26:57.907Z,99.99
2018-04-30T04:27:57.831Z,99.99
2018-04-30T04:28:57.823Z,99.99
2018-04-30T04:29:57.771Z,99.99
2018-04-30T04:30:57.734Z,99.99
2018-04-30T04:31:57.690Z,99.99
2018-04-30T04:32:57.637Z,99.99
2018-04-30T04:34:07.680Z,99.99
2018-04-30T04:35:08.671Z,99.99
2018-04-30T04:35:57.536Z,99.99
2018-04-30T04:36:57.510Z,99.99
2018-04-30T04:37:57.478Z,99.99
2018-04-30T04:38:57.472Z,99.99
2018-04-30T04:39:57.371Z,99.99
2018-04-30T04:40:57.342Z,99.99
2018-04-30T04:41:57.310Z,99.99
2018-04-30T04:42:57.251Z,99.99
2018-04-30T04:43:57.249Z,99.99
2018-04-30T04:44:57.165Z,99.99
2018-04-30T04:45:57.129Z,99.99
2018-04-30T04:46:57.100Z,99.99
2018-04-30T04:47:57.041Z,99.99
2018-04-30T04:48:57.010Z,99.99
2018-04-30T04:49:56.982Z,99.99
2018-04-30T04:50:56.945Z,99.99
2018-04-30T04:51:56.906Z,99.99
2018-04-30T04:52:56.898Z,99.99
2018-04-30T04:54:07.221Z,99.99
2018-04-30T04:55:06.734Z,99.99
2018-04-30T04:55:56.770Z,99.99
2018-04-30T04:56:56.704Z,99.99
2018-04-30T04:57:56.670Z,99.99
2018-04-30T04:58:56.618Z,99.99
2018-04-30T04:59:56.601Z,99.99
2018-04-30T05:00:56.544Z,99.99
2018-04-30T05:01:56.499Z,99.99
2018-04-30T05:02:56.463Z,99.99
2018-04-30T05:03:56.468Z,99.99
2018-04-30T05:04:56.412Z,99.99
2018-04-30T05:05:56.327Z,99.99
2018-04-30T05:06:56.338Z,99.99
2018-04-30T05:07:56.266Z,99.99
2018-04-30T05:08:56.239Z,99.99
2018-04-30T05:09:56.213Z,99.99
2018-04-30T05:10:56.179Z,99.99
2018-04-30T05:11:56.119Z,99.99
2018-04-30T05:12:56.076Z,99.99
2018-04-30T05:14:08.364Z,99.99
2018-04-30T05:14:56.052Z,99.99
2018-04-30T05:15:56.021Z,99.99
2018-04-30T05:16:55.962Z,99.99
2018-04-30T05:17:55.866Z,99.99
2018-04-30T05:18:55.843Z,99.99
2018-04-30T05:20:07.317Z,99.99
2018-04-30T05:20:55.793Z,99.99
2018-04-30T05:21:55.753Z,99.99
2018-04-30T05:22:55.687Z,99.99
2018-04-30T05:23:55.621Z,99.99
2018-04-30T05:24:55.580Z,99.99
2018-04-30T05:25:55.564Z,99.99
2018-04-30T05:26:55.496Z,99.99
2018-04-30T05:27:55.499Z,99.99
2018-04-30T05:28:55.428Z,99.99
2018-04-30T05:29:55.388Z,99.99
2018-04-30T05:30:55.396Z,99.99
2018-04-30T05:31:55.312Z,99.99
2018-04-30T05:32:55.286Z,99.99
2018-04-30T05:33:55.324Z,99.99
2018-04-30T05:34:55.193Z,99.99
2018-04-30T05:35:55.165Z,99.99
2018-04-30T05:36:55.147Z,99.99
2018-04-30T05:37:55.067Z,99.99
2018-04-30T05:38:55.035Z,99.99
2018-04-30T05:39:55.005Z,99.99
2018-04-30T05:40:54.971Z,99.99
2018-04-30T05:41:54.943Z,99.99
2018-04-30T05:42:54.884Z,99.99
2018-04-30T05:43:54.855Z,99.99
2018-04-30T05:44:54.809Z,99.99
2018-04-30T05:45:54.754Z,99.99
2018-04-30T05:46:54.765Z,99.99
2018-04-30T05:47:54.721Z,99.99
2018-04-30T05:48:54.653Z,99.99
2018-04-30T05:49:54.614Z,99.99
2018-04-30T05:50:54.551Z,99.99
2018-04-30T05:51:54.583Z,99.99
2018-04-30T05:52:54.493Z,99.99
2018-04-30T05:54:05.935Z,99.99
2018-04-30T05:54:54.410Z,99.99
2018-04-30T05:55:54.366Z,99.99
2018-04-30T05:56:54.347Z,99.99
2018-04-30T05:57:54.275Z,99.99
2018-04-30T05:58:54.265Z,99.99
2018-04-30T05:59:54.219Z,99.99
2018-04-30T06:00:54.165Z,99.99
2018-04-30T06:01:54.144Z,99.99
2018-04-30T06:02:54.115Z,99.99
2018-04-30T06:03:54.056Z,99.99
2018-04-30T06:04:54.022Z,99.99
2018-04-30T06:05:53.981Z,99.99
2018-04-30T06:06:54.069Z,99.99
2018-04-30T06:07:53.932Z,99.99
2018-04-30T06:08:53.859Z,99.99
2018-04-30T06:09:53.819Z,99.99
2018-04-30T06:10:53.786Z,99.99
2018-04-30T06:11:53.752Z,99.99
2018-04-30T06:12:53.737Z,99.99
2018-04-30T06:13:53.663Z,99.99
2018-04-30T06:15:01.882Z,99.99
2018-04-30T06:16:01.603Z,99.99
2018-04-30T06:16:53.545Z,99.99
2018-04-30T06:17:53.541Z,99.99
2018-04-30T06:18:53.477Z,99.99
2018-04-30T06:19:53.433Z,99.99
2018-04-30T06:20:53.373Z,99.99
2018-04-30T06:21:53.369Z,99.99
2018-04-30T06:22:53.337Z,99.99
2018-04-30T06:23:53.266Z,99.99
2018-04-30T06:24:53.233Z,99.99
2018-04-30T06:25:53.195Z,99.99
2018-04-30T06:26:53.205Z,99.99
2018-04-30T06:27:53.105Z,99.99
2018-04-30T06:28:53.099Z,99.99
2018-04-30T06:29:53.025Z,99.99
2018-04-30T06:30:52.994Z,99.99
2018-04-30T06:31:52.949Z,99.99
2018-04-30T06:32:52.944Z,99.99
2018-04-30T06:34:05.448Z,99.99
2018-04-30T06:34:52.838Z,99.99
2018-04-30T06:35:52.855Z,99.99
2018-04-30T06:36:52.767Z,99.99
2018-04-30T06:37:52.785Z,99.99
2018-04-30T06:38:52.682Z,99.99
2018-04-30T06:39:52.635Z,99.99
2018-04-30T06:40:52.615Z,99.99
2018-04-30T06:41:52.563Z,99.99
2018-04-30T06:42:52.530Z,99.99
2018-04-30T06:43:52.519Z,99.99
2018-04-30T06:44:52.629Z,99.99
2018-04-30T06:45:52.402Z,99.99
2018-04-30T06:46:52.371Z,99.99
2018-04-30T06:47:52.393Z,99.99
2018-04-30T06:48:52.286Z,99.99
2018-04-30T06:49:52.249Z,99.99
2018-04-30T06:50:52.234Z,99.99
2018-04-30T06:51:52.163Z,99.99
2018-04-30T06:52:52.124Z,99.99
2018-04-30T06:53:52.107Z,99.99
2018-04-30T06:54:52.037Z,99.99
2018-04-30T06:55:52.018Z,99.99
2018-04-30T06:56:51.996Z,99.99
2018-04-30T06:57:51.970Z,99.99
2018-04-30T06:58:51.899Z,99.99
2018-04-30T06:59:51.847Z,99.99
2018-04-30T07:00:51.800Z,99.99
2018-04-30T07:01:51.774Z,99.99
2018-04-30T07:02:51.827Z,99.99
2018-04-30T07:03:51.737Z,99.99
2018-04-30T07:04:51.682Z,99.99
2018-04-30T07:05:51.637Z,99.99
2018-04-30T07:06:51.659Z,99.99
2018-04-30T07:07:51.557Z,99.99
2018-04-30T07:08:51.524Z,99.99
2018-04-30T07:09:51.473Z,99.99
2018-04-30T07:10:51.438Z,99.99
2018-04-30T07:11:51.394Z,99.99
2018-04-30T07:12:51.353Z,99.99
2018-04-30T07:13:51.324Z,99.99
2018-04-30T07:14:51.327Z,99.99
2018-04-30T07:15:51.211Z,99.99
2018-04-30T07:16:51.196Z,99.99
2018-04-30T07:18:00.486Z,99.99
2018-04-30T07:18:51.093Z,99.99
2018-04-30T07:19:51.095Z,99.99
2018-04-30T07:20:51.025Z,99.99
2018-04-30T07:21:50.979Z,99.99
2018-04-30T07:22:50.945Z,99.99
2018-04-30T07:23:50.899Z,99.99
2018-04-30T07:24:50.920Z,99.99
2018-04-30T07:25:50.862Z,99.99
2018-04-30T07:26:50.783Z,99.99
2018-04-30T07:27:50.796Z,99.99
2018-04-30T07:28:50.700Z,99.99
2018-04-30T07:29:50.727Z,99.99
2018-04-30T07:30:50.620Z,99.99
2018-04-30T07:31:50.625Z,99.99
2018-04-30T07:32:50.557Z,99.99
2018-04-30T07:33:50.516Z,99.99
2018-04-30T07:34:50.529Z,99.99
2018-04-30T07:35:50.526Z,99.99
2018-04-30T07:36:50.381Z,99.99
2018-04-30T07:37:50.371Z,99.99
2018-04-30T07:38:50.304Z,99.99
2018-04-30T07:39:50.266Z,99.99
2018-04-30T07:40:50.269Z,99.99
2018-04-30T07:41:50.179Z,99.99
2018-04-30T07:42:50.142Z,99.99
2018-04-30T07:43:50.123Z,99.99
2018-04-30T07:44:50.070Z,99.99
2018-04-30T07:45:50.050Z,99.99
2018-04-30T07:46:49.988Z,99.99
2018-04-30T07:47:49.941Z,99.99
2018-04-30T07:48:49.914Z,99.99
2018-04-30T07:49:49.883Z,99.99
2018-04-30T07:50:49.853Z,99.99
2018-04-30T07:51:49.796Z,99.99
2018-04-30T07:52:49.762Z,99.99
2018-04-30T07:53:49.715Z,99.99
2018-04-30T07:54:49.659Z,99.99
2018-04-30T07:55:49.653Z,99.99
2018-04-30T07:56:49.594Z,99.99
2018-04-30T07:57:49.551Z,99.99
2018-04-30T07:58:49.533Z,99.99
2018-04-30T07:59:49.481Z,99.99
2018-04-30T08:00:49.489Z,99.99
2018-04-30T08:01:49.417Z,99.99
2018-04-30T08:02:49.370Z,99.99
2018-04-30T08:03:49.316Z,99.99
2018-04-30T08:04:49.266Z,99.99
2018-04-30T08:05:49.249Z,99.99
2018-04-30T08:06:49.239Z,99.99
2018-04-30T08:07:49.190Z,99.99
2018-04-30T08:08:49.150Z,99.99
2018-04-30T08:09:49.077Z,99.99
2018-04-30T08:10:49.071Z,99.99
2018-04-30T08:11:49.031Z,99.99
2018-04-30T08:12:49.016Z,99.99
2018-04-30T08:13:48.929Z,99.99
2018-04-30T08:14:48.892Z,99.99
2018-04-30T08:15:48.856Z,99.99
2018-04-30T08:16:48.827Z,99.99
2018-04-30T08:17:48.835Z,99.99
2018-04-30T08:18:48.714Z,99.99
2018-04-30T08:19:48.683Z,99.99
2018-04-30T08:20:48.644Z,99.99
2018-04-30T08:21:48.630Z,99.99
2018-04-30T08:22:48.577Z,99.99
2018-04-30T08:23:48.533Z,99.99
2018-04-30T08:24:48.471Z,99.99
2018-04-30T08:25:48.445Z,99.99
2018-04-30T08:26:48.452Z,99.99
2018-04-30T08:27:48.403Z,99.99
2018-04-30T08:28:48.367Z,99.99
2018-04-30T08:29:48.284Z,99.99
2018-04-30T08:30:48.260Z,99.99
2018-04-30T08:31:48.217Z,99.99
2018-04-30T08:32:48.202Z,99.99
2018-04-30T08:33:58.463Z,99.99
2018-04-30T08:34:48.099Z,99.99
2018-04-30T08:35:48.064Z,99.99
2018-04-30T08:36:48.008Z,99.99
2018-04-30T08:37:48.010Z,99.99
2018-04-30T08:38:47.941Z,99.99
2018-04-30T08:39:47.899Z,99.99
2018-04-30T08:40:47.861Z,99.99
2018-04-30T08:41:56.389Z,99.99
2018-04-30T08:42:47.801Z,99.99
2018-04-30T08:43:47.742Z,99.99
2018-04-30T08:44:47.823Z,99.99
2018-04-30T08:45:47.654Z,99.99
2018-04-30T08:46:47.652Z,99.99
2018-04-30T08:47:47.579Z,99.99
2018-04-30T08:48:47.565Z,99.99
2018-04-30T08:49:47.501Z,99.99
2018-04-30T08:50:47.455Z,99.99
2018-04-30T08:51:47.399Z,99.99
2018-04-30T08:52:47.390Z,99.99
2018-04-30T08:53:47.340Z,99.99
2018-04-30T08:54:47.289Z,99.99
2018-04-30T08:55:47.255Z,99.99
2018-04-30T08:56:47.249Z,99.99
2018-04-30T08:57:47.193Z,99.99
2018-04-30T08:58:47.152Z,99.99
2018-04-30T08:59:47.106Z,99.99
2018-04-30T09:00:47.053Z,99.99
2018-04-30T09:01:47.016Z,99.99
2018-04-30T09:02:47.012Z,99.99
2018-04-30T09:03:46.929Z,99.99
2018-04-30T09:04:46.902Z,99.99
2018-04-30T09:05:46.944Z,99.99
2018-04-30T09:06:46.824Z,99.99
2018-04-30T09:07:46.820Z,99.99
2018-04-30T09:08:46.733Z,99.99
2018-04-30T09:09:46.802Z,99.99
2018-04-30T09:10:46.664Z,99.99
2018-04-30T09:11:46.617Z,99.99
2018-04-30T09:12:54.182Z,99.99
2018-04-30T09:13:55.012Z,99.99
2018-04-30T09:14:46.514Z,99.99
2018-04-30T09:15:56.681Z,99.99
2018-04-30T09:16:46.427Z,99.99
2018-04-30T09:17:46.395Z,99.99
2018-04-30T09:18:46.361Z,99.99
2018-04-30T09:19:46.326Z,99.99
2018-04-30T09:20:46.300Z,99.99
2018-04-30T09:21:46.237Z,99.99
2018-04-30T09:22:46.220Z,99.99
2018-04-30T09:23:46.197Z,99.99
2018-04-30T09:24:46.165Z,99.99
2018-04-30T09:25:46.075Z,99.99
2018-04-30T09:26:46.064Z,99.99
2018-04-30T09:27:45.998Z,99.99
2018-04-30T09:28:46.001Z,99.99
2018-04-30T09:29:45.928Z,99.99
2018-04-30T09:30:45.900Z,99.99
2018-04-30T09:31:45.867Z,99.62
2018-04-30T09:32:45.821Z,99.52
2018-04-30T09:33:55.864Z,99.76
2018-04-30T09:34:45.737Z,98.90
2018-04-30T09:35:45.832Z,98.18
2018-04-30T09:36:45.685Z,97.90
2018-04-30T09:37:45.634Z,97.99
2018-04-30T09:38:45.634Z,98.09
2018-04-30T09:39:45.550Z,98.95
2018-04-30T09:40:45.521Z,97.71
2018-04-30T09:41:45.474Z,97.42
2018-04-30T09:42:45.427Z,97.33
2018-04-30T09:43:45.426Z,98.09
2018-04-30T09:44:45.382Z,95.94
2018-04-30T09:45:45.319Z,95.17
2018-04-30T09:46:45.300Z,93.84
2018-04-30T09:47:45.247Z,93.30
2018-04-30T09:48:45.222Z,92.54
2018-04-30T09:49:45.206Z,93.02
2018-04-30T09:50:45.135Z,92.63
2018-04-30T09:51:45.109Z,93.69
2018-04-30T09:52:45.070Z,93.69
2018-04-30T09:53:45.032Z,94.84
2018-04-30T09:54:53.569Z,92.44
2018-04-30T09:55:44.958Z,94.12
2018-04-30T09:56:44.925Z,95.27
2018-04-30T09:57:45.174Z,95.36
2018-04-30T09:58:44.850Z,95.61
2018-04-30T09:59:44.835Z,93.50
2018-04-30T10:00:44.765Z,92.68
2018-04-30T10:01:44.726Z,91.30
2018-04-30T10:02:44.701Z,90.58
2018-04-30T10:03:44.655Z,90.53
2018-04-30T10:04:54.615Z,88.70
2018-04-30T10:05:44.589Z,88.94
2018-04-30T10:06:44.552Z,90.00
2018-04-30T10:07:44.531Z,90.19
2018-04-30T10:08:44.477Z,90.05
2018-04-30T10:09:44.447Z,91.49
2018-04-30T10:10:44.428Z,91.49
2018-04-30T10:11:44.377Z,91.34
2018-04-30T10:12:44.338Z,91.92
2018-04-30T10:13:44.295Z,89.04
2018-04-30T10:14:54.632Z,89.52
2018-04-30T10:15:44.270Z,90.24
2018-04-30T10:16:44.328Z,89.76
2018-04-30T10:17:44.223Z,90.34
2018-04-30T10:18:44.129Z,91.39
2018-04-30T10:19:44.095Z,89.76
2018-04-30T10:20:44.089Z,88.23
2018-04-30T10:21:44.018Z,89.15
2018-04-30T10:22:43.982Z,90.48
2018-04-30T10:23:44.046Z,90.30
2018-04-30T10:24:43.921Z,91.73
2018-04-30T10:25:43.897Z,90.87
2018-04-30T10:26:43.861Z,90.87
2018-04-30T10:27:43.825Z,91.39
2018-04-30T10:28:43.766Z,88.52
2018-04-30T10:29:43.736Z,84.88
2018-04-30T10:30:43.701Z,85.65
2018-04-30T10:31:43.735Z,86.61
2018-04-30T10:32:43.626Z,86.41
2018-04-30T10:33:43.582Z,86.99
2018-04-30T10:34:43.539Z,86.18
2018-04-30T10:35:43.543Z,88.00
2018-04-30T10:36:43.483Z,88.48
2018-04-30T10:37:43.454Z,88.19
2018-04-30T10:38:43.417Z,88.09
2018-04-30T10:39:43.370Z,88.00
2018-04-30T10:40:43.347Z,89.05
2018-04-30T10:41:43.291Z,87.43
2018-04-30T10:42:43.301Z,87.04
2018-04-30T10:43:43.207Z,87.90
2018-04-30T10:44:43.190Z,87.29
2018-04-30T10:45:43.186Z,88.43
2018-04-30T10:46:43.111Z,88.00
2018-04-30T10:47:43.069Z,86.37
2018-04-30T10:48:43.027Z,86.28
2018-04-30T10:49:43.004Z,86.90
2018-04-30T10:50:42.988Z,88.91
2018-04-30T10:51:42.941Z,88.19
2018-04-30T10:52:42.877Z,88.19
2018-04-30T10:53:51.179Z,88.00
2018-04-30T10:54:42.819Z,88.38
2018-04-30T10:55:51.358Z,88.19
2018-04-30T10:56:42.724Z,88.38
2018-04-30T10:57:42.692Z,87.23
2018-04-30T10:58:42.665Z,87.14
2018-04-30T10:59:42.614Z,85.71
2018-04-30T11:00:42.621Z,84.46
2018-04-30T11:01:42.550Z,84.50
2018-04-30T11:02:42.585Z,83.06
2018-04-30T11:03:42.468Z,81.78
2018-04-30T11:04:42.430Z,81.40
2018-04-30T11:05:42.423Z,80.44
2018-04-30T11:06:42.360Z,80.35
2018-04-30T11:07:52.722Z,82.35
2018-04-30T11:08:42.283Z,81.97
2018-04-30T11:09:42.240Z,81.59
2018-04-30T11:10:42.262Z,82.26
2018-04-30T11:11:42.168Z,82.45
2018-04-30T11:12:42.152Z,82.64
2018-04-30T11:13:42.100Z,81.59
2018-04-30T11:14:42.052Z,81.88
2018-04-30T11:15:42.055Z,80.54
2018-04-30T11:16:41.982Z,80.44
2018-04-30T11:17:41.952Z,80.54
2018-04-30T11:18:41.903Z,80.25
2018-04-30T11:19:41.869Z,79.96
2018-04-30T11:20:41.862Z,79.39
2018-04-30T11:21:41.801Z,79.81
2018-04-30T11:22:41.787Z,78.86
2018-04-30T11:23:41.708Z,78.95
2018-04-30T11:24:41.673Z,77.61
2018-04-30T11:25:41.646Z,79.14
2018-04-30T11:26:41.633Z,79.14
2018-04-30T11:27:41.584Z,78.66
2018-04-30T11:28:41.522Z,78.66
2018-04-30T11:29:41.507Z,77.99
2018-04-30T11:30:51.753Z,78.38
2018-04-30T11:31:41.439Z,78.76
2018-04-30T11:32:41.414Z,78.47
2018-04-30T11:33:41.337Z,77.13
2018-04-30T11:34:41.309Z,76.64
2018-04-30T11:35:41.272Z,75.39
2018-04-30T11:36:41.264Z,74.05
2018-04-30T11:37:41.219Z,73.90
2018-04-30T11:38:41.146Z,72.36
2018-04-30T11:39:41.123Z,72.11
2018-04-30T11:40:41.084Z,71.19
2018-04-30T11:41:41.089Z,70.99
2018-04-30T11:42:41.019Z,70.70
2018-04-30T11:43:40.974Z,70.36
2018-04-30T11:44:40.949Z,69.56
2018-04-30T11:45:40.908Z,70.57
2018-04-30T11:46:40.907Z,71.05
2018-04-30T11:47:40.837Z,69.84
2018-04-30T11:48:40.813Z,69.65
2018-04-30T11:49:40.774Z,69.17
2018-04-30T11:50:40.786Z,69.49
2018-04-30T11:51:40.703Z,67.38
2018-04-30T11:52:40.694Z,68.88
2018-04-30T11:53:40.650Z,69.56
2018-04-30T11:54:40.617Z,68.98
2018-04-30T11:55:40.581Z,69.78
2018-04-30T11:56:40.556Z,69.40
2018-04-30T11:57:40.538Z,69.26
2018-04-30T11:58:40.514Z,69.13
2018-04-30T11:59:40.470Z,69.23
2018-04-30T12:00:40.410Z,68.79
2018-04-30T12:01:40.392Z,69.26
2018-04-30T12:02:40.386Z,69.17
2018-04-30T12:03:40.321Z,69.42
2018-04-30T12:04:40.284Z,70.42
2018-04-30T12:05:40.256Z,69.23
2018-04-30T12:06:40.225Z,70.83
2018-04-30T12:07:40.218Z,71.88
2018-04-30T12:08:40.168Z,72.36
2018-04-30T12:09:40.141Z,72.32
2018-04-30T12:10:40.091Z,72.71
2018-04-30T12:11:40.096Z,73.91
2018-04-30T12:12:40.026Z,75.93
2018-04-30T12:13:40.055Z,75.98
2018-04-30T12:14:39.994Z,75.73
2018-04-30T12:15:39.936Z,76.12
2018-04-30T12:16:39.973Z,77.08
2018-04-30T12:17:39.870Z,77.04
2018-04-30T12:18:39.839Z,78.38
2018-04-30T12:19:39.791Z,78.76
2018-04-30T12:20:39.774Z,79.72
2018-04-30T12:21:39.793Z,79.91
2018-04-30T12:22:39.684Z,79.81
2018-04-30T12:23:39.664Z,79.72
2018-04-30T12:24:39.609Z,80.38
2018-04-30T12:25:39.635Z,80.38
2018-04-30T12:26:49.311Z,81.05
2018-04-30T12:27:39.493Z,81.25
2018-04-30T12:28:39.464Z,81.88
2018-04-30T12:29:39.521Z,84.08
2018-04-30T12:30:39.378Z,83.98
2018-04-30T12:31:39.375Z,84.75
2018-04-30T12:32:39.316Z,85.32
2018-04-30T12:33:39.339Z,84.84
2018-04-30T12:34:39.294Z,85.28
2018-04-30T12:35:39.233Z,84.80
2018-04-30T12:36:39.176Z,84.99
2018-04-30T12:37:39.155Z,85.18
2018-04-30T12:38:39.092Z,86.61
2018-04-30T12:39:39.060Z,87.86
2018-04-30T12:40:39.041Z,89.29
2018-04-30T12:41:38.975Z,90.88
2018-04-30T12:42:38.984Z,90.78
2018-04-30T12:43:38.955Z,91.54
2018-04-30T12:44:38.886Z,95.75
2018-04-30T12:45:38.860Z,97.13
2018-04-30T12:46:38.816Z,99.99
2018-04-30T12:47:38.798Z,99.99
2018-04-30T12:48:38.728Z,99.99
2018-04-30T12:49:38.739Z,99.99
2018-04-30T12:50:38.648Z,99.99
2018-04-30T12:51:38.612Z,99.99